createdAt,value
2022-08-20T00:01:01.793Z,100672.16
2022-08-20T00:03:41.445Z,100675.69
2022-08-20T00:06:19.419Z,100672.19
2022-08-20T00:08:46.798Z,100673.09
2022-08-20T00:11:18.328Z,100672.22
2022-08-20T00:13:54.118Z,100691.56
2022-08-20T00:16:22.570Z,100694.22
2022-08-20T00:18:49.318Z,100697.72
2022-08-20T00:21:19.082Z,100702.13
2022-08-20T00:23:48.221Z,100708.25
2022-08-20T00:26:15.513Z,100707.41
2022-08-20T00:28:41.946Z,100694.22
2022-08-20T00:31:11.151Z,100698.59
2022-08-20T00:33:38.399Z,100691.56
2022-08-20T00:36:10.698Z,100676.59
2022-08-20T00:38:38.396Z,100666.97
2022-08-20T00:41:05.097Z,100668.75
2022-08-20T00:43:46.838Z,100665.25
2022-08-20T00:46:31.294Z,100657.34
2022-08-20T00:48:59.960Z,100666.16
2022-08-20T00:51:40.972Z,100667.91
2022-08-20T00:54:34.458Z,100666.19
2022-08-20T00:57:09.089Z,100664.44
2022-08-20T00:59:38.177Z,100668.81
2022-08-20T01:02:08.238Z,100660.94
2022-08-20T01:04:35.375Z,100665.34
2022-08-20T01:07:05.314Z,100663.59
2022-08-20T01:09:49.533Z,100657.47
2022-08-20T01:12:18.986Z,100664.50
2022-08-20T01:14:45.849Z,100672.44
2022-08-20T01:17:18.807Z,100683.88
2022-08-20T01:19:51.928Z,100688.25
2022-08-20T01:22:44.705Z,100688.25
2022-08-20T01:25:17.180Z,100691.78
2022-08-20T01:27:45.029Z,100693.56
2022-08-20T01:30:12.589Z,100683.03
2022-08-20T01:32:39.064Z,100686.53
2022-08-20T01:35:06.003Z,100687.44
2022-08-20T01:37:32.440Z,100686.56
2022-08-20T01:39:59.425Z,100690.09
2022-08-20T01:42:38.078Z,100686.56
2022-08-20T01:45:26.926Z,100684.81
2022-08-20T01:47:54.545Z,100683.06
2022-08-20T01:50:24.636Z,100680.41
2022-08-20T01:53:08.753Z,100679.53
2022-08-20T01:55:35.213Z,100679.53
2022-08-20T01:58:02.002Z,100679.53
2022-08-20T02:00:28.543Z,100685.69
2022-08-20T02:02:55.073Z,100676.91
2022-08-20T02:05:22.601Z,100682.19
2022-08-20T02:07:49.148Z,100688.34
2022-08-20T02:10:16.985Z,100683.97
2022-08-20T02:12:43.572Z,100687.50
2022-08-20T02:15:11.156Z,100690.16
2022-08-20T02:17:39.195Z,100700.69
2022-08-20T02:20:18.594Z,100699.81
2022-08-20T02:22:53.918Z,100711.25
2022-08-20T02:25:23.578Z,100702.47
2022-08-20T02:27:52.353Z,100706.88
2022-08-20T02:30:28.176Z,100706.84
2022-08-20T02:32:56.461Z,100713.88
2022-08-20T02:35:23.646Z,100713.00
2022-08-20T02:37:50.876Z,100707.75
2022-08-20T02:40:30.081Z,100710.38
2022-08-20T02:42:58.084Z,100714.78
2022-08-20T02:45:24.689Z,100714.81
2022-08-20T02:47:54.271Z,100713.06
2022-08-20T02:50:22.892Z,100716.56
2022-08-20T02:52:52.002Z,100713.06
2022-08-20T02:55:27.966Z,100719.19
2022-08-20T02:57:59.870Z,100716.56
2022-08-20T03:00:27.585Z,100716.56
2022-08-20T03:02:54.034Z,100724.50
2022-08-20T03:05:20.542Z,100725.38
2022-08-20T03:07:50.340Z,100729.75
2022-08-20T03:10:17.421Z,100722.75
2022-08-20T03:12:43.893Z,100728.00
2022-08-20T03:15:17.557Z,100728.00
2022-08-20T03:17:45.041Z,100713.97
2022-08-20T03:20:12.084Z,100719.25
2022-08-20T03:22:38.513Z,100709.56
2022-08-20T03:25:05.282Z,100715.72
2022-08-20T03:27:36.129Z,100712.19
2022-08-20T03:30:05.872Z,100720.09
2022-08-20T03:32:32.366Z,100716.59
2022-08-20T03:34:58.814Z,100715.72
2022-08-20T03:37:25.359Z,100715.72
2022-08-20T03:39:52.086Z,100712.22
2022-08-20T03:42:18.622Z,100710.47
2022-08-20T03:44:45.055Z,100721.88
2022-08-20T03:47:11.845Z,100721.00
2022-08-20T03:49:38.291Z,100723.63
2022-08-20T03:52:04.919Z,100715.72
2022-08-20T03:54:31.893Z,100716.63
2022-08-20T03:56:59.335Z,100725.41
2022-08-20T03:59:25.831Z,100714.00
2022-08-20T04:01:52.639Z,100717.53
2022-08-20T04:04:20.463Z,100721.91
2022-08-20T04:06:47.569Z,100729.84
2022-08-20T04:09:14.490Z,100726.34
2022-08-20T04:11:41.873Z,100729.84
2022-08-20T04:14:10.428Z,100728.03
2022-08-20T04:16:39.395Z,100721.03
2022-08-20T04:19:06.219Z,100725.41
2022-08-20T04:21:35.081Z,100728.03
2022-08-20T04:24:04.246Z,100726.28
2022-08-20T04:26:31.473Z,100728.03
2022-08-20T04:28:58.087Z,100727.16
2022-08-20T04:31:25.393Z,100719.31
2022-08-20T04:33:52.020Z,100726.34
2022-08-20T04:36:18.457Z,100721.94
2022-08-20T04:38:47.832Z,100722.81
2022-08-20T04:41:23.191Z,100724.56
2022-08-20T04:43:51.807Z,100724.56
2022-08-20T04:46:19.244Z,100722.78
2022-08-20T04:48:48.699Z,100720.16
2022-08-20T04:51:16.994Z,100721.03
2022-08-20T04:53:51.994Z,100717.53
2022-08-20T04:56:23.166Z,100712.22
2022-08-20T04:58:51.311Z,100710.47
2022-08-20T05:01:17.941Z,100713.97
2022-08-20T05:03:44.559Z,100713.97
2022-08-20T05:06:11.979Z,100716.59
2022-08-20T05:08:39.489Z,100713.06
2022-08-20T05:11:33.692Z,100722.72
2022-08-20T05:13:53.555Z,100720.94
2022-08-20T05:16:20.892Z,100733.22
2022-08-20T05:18:52.338Z,100715.66
2022-08-20T05:21:20.033Z,100721.78
2022-08-20T05:23:46.495Z,100719.13
2022-08-20T05:26:15.697Z,100725.28
2022-08-20T05:28:58.036Z,100729.66
2022-08-20T05:31:31.889Z,100727.00
2022-08-20T05:34:03.810Z,100719.97
2022-08-20T05:36:30.270Z,100729.63
2022-08-20T05:38:56.869Z,100731.38
2022-08-20T05:41:28.932Z,100741.03
2022-08-20T05:43:56.022Z,100743.66
2022-08-20T05:46:22.963Z,100734.84
2022-08-20T05:48:50.679Z,100733.94
2022-08-20T05:51:17.582Z,100745.38
2022-08-20T05:53:44.085Z,100744.47
2022-08-20T05:56:13.311Z,100752.38
2022-08-20T05:58:39.783Z,100761.16
2022-08-20T06:01:06.332Z,100753.25
2022-08-20T06:03:51.272Z,100756.75
2022-08-20T06:06:18.378Z,100767.28
2022-08-20T06:09:04.462Z,100768.16
2022-08-20T06:11:36.824Z,100763.75
2022-08-20T06:14:03.892Z,100769.03
2022-08-20T06:16:30.767Z,100770.81
2022-08-20T06:18:58.517Z,100777.81
2022-08-20T06:21:25.131Z,100776.94
2022-08-20T06:23:57.609Z,100777.81
2022-08-20T06:26:29.994Z,100772.50
2022-08-20T06:28:58.623Z,100775.13
2022-08-20T06:31:25.071Z,100775.97
2022-08-20T06:33:51.570Z,100779.44
2022-08-20T06:36:18.780Z,100778.53
2022-08-20T06:38:46.274Z,100777.59
2022-08-20T06:41:12.953Z,100782.81
2022-08-20T06:43:39.439Z,100782.72
2022-08-20T06:46:06.849Z,100781.81
2022-08-20T06:48:34.170Z,100781.75
2022-08-20T06:51:01.368Z,100781.69
2022-08-20T06:53:28.838Z,100782.50
2022-08-20T06:55:55.974Z,100779.84
2022-08-20T06:58:37.628Z,100785.09
2022-08-20T07:01:09.948Z,100797.38
2022-08-20T07:03:38.250Z,100798.28
2022-08-20T07:06:05.357Z,100797.41
2022-08-20T07:08:31.791Z,100794.75
2022-08-20T07:10:59.487Z,100807.13
2022-08-20T07:13:25.956Z,100807.06
2022-08-20T07:15:54.109Z,100812.34
2022-08-20T07:18:27.765Z,100802.66
2022-08-20T07:20:57.377Z,100806.22
2022-08-20T07:23:25.407Z,100813.28
2022-08-20T07:25:51.895Z,100821.19
2022-08-20T07:28:21.852Z,100818.56
2022-08-20T07:31:12.324Z,100817.66
2022-08-20T07:33:41.662Z,100819.38
2022-08-20T07:36:08.982Z,100816.72
2022-08-20T07:38:36.619Z,100821.09
2022-08-20T07:41:09.844Z,100818.41
2022-08-20T07:43:36.336Z,100821.91
2022-08-20T07:46:08.721Z,100816.63
2022-08-20T07:48:38.045Z,100818.28
2022-08-20T07:51:05.375Z,100817.38
2022-08-20T07:53:37.454Z,100814.72
2022-08-20T07:56:05.931Z,100818.19
2022-08-20T07:58:33.467Z,100817.28
2022-08-20T08:01:00.442Z,100820.81
2022-08-20T08:03:40.558Z,100823.41
2022-08-20T08:06:14.950Z,100827.78
2022-08-20T08:08:44.727Z,100833.94
2022-08-20T08:11:11.257Z,100830.44
2022-08-20T08:13:40.439Z,100834.81
2022-08-20T08:16:08.819Z,100829.53
2022-08-20T08:18:42.411Z,100833.88
2022-08-20T08:21:09.822Z,100828.53
2022-08-20T08:23:36.280Z,100834.66
2022-08-20T08:26:03.085Z,100824.03
2022-08-20T08:28:30.530Z,100838.16
2022-08-20T08:30:57.622Z,100842.50
2022-08-20T08:33:30.915Z,100841.63
2022-08-20T08:36:12.414Z,100831.00
2022-08-20T08:38:41.288Z,100831.03
2022-08-20T08:41:21.543Z,100832.78
2022-08-20T08:43:50.572Z,100841.59
2022-08-20T08:46:22.466Z,100833.63
2022-08-20T08:48:51.048Z,100843.22
2022-08-20T08:51:24.831Z,100836.13
2022-08-20T08:53:54.724Z,100835.13
2022-08-20T08:56:24.431Z,100832.44
2022-08-20T08:58:50.898Z,100827.94
2022-08-20T09:01:55.615Z,100835.75
2022-08-20T09:04:06.958Z,100837.47
2022-08-20T09:06:33.434Z,100840.97
2022-08-20T09:09:02.860Z,100840.00
2022-08-20T09:11:29.716Z,100837.41
2022-08-20T09:13:56.705Z,100847.88
2022-08-20T09:16:24.418Z,100839.91
2022-08-20T09:18:52.751Z,100847.75
2022-08-20T09:21:19.435Z,100850.34
2022-08-20T09:23:46.135Z,100847.66
2022-08-20T09:26:13.588Z,100842.25
2022-08-20T09:28:40.085Z,100843.13
2022-08-20T09:31:06.524Z,100835.06
2022-08-20T09:33:33.532Z,100845.56
2022-08-20T09:36:00.054Z,100841.97
2022-08-20T09:38:26.539Z,100842.66
2022-08-20T09:40:53.122Z,100848.66
2022-08-20T09:43:19.584Z,100850.31
2022-08-20T09:45:46.015Z,100857.38
2022-08-20T09:48:12.472Z,100848.44
2022-08-20T09:50:44.237Z,100851.31
2022-08-20T09:53:10.962Z,100849.25
2022-08-20T09:55:39.401Z,100849.06
2022-08-20T09:58:22.932Z,100841.81
2022-08-20T10:00:49.427Z,100838.22
2022-08-20T10:03:16.402Z,100846.97
2022-08-20T10:05:43.229Z,100851.34
2022-08-20T10:08:10.646Z,100844.19
2022-08-20T10:10:37.367Z,100851.00
2022-08-20T10:13:03.842Z,100850.00
2022-08-20T10:15:30.886Z,100845.69
2022-08-20T10:17:57.628Z,100847.16
2022-08-20T10:20:25.608Z,100840.72
2022-08-20T10:22:52.058Z,100847.56
2022-08-20T10:25:18.866Z,100852.84
2022-08-20T10:27:45.473Z,100848.31
2022-08-20T10:30:12.229Z,100846.44
2022-08-20T10:32:38.690Z,100865.13
2022-08-20T10:35:05.345Z,100862.81
2022-08-20T10:37:31.843Z,100851.03
2022-08-20T10:39:58.342Z,100843.94
2022-08-20T10:42:24.865Z,100850.25
2022-08-20T10:44:51.518Z,100857.41
2022-08-20T10:47:23.614Z,100851.31
2022-08-20T10:49:52.081Z,100856.84
2022-08-20T10:52:19.344Z,100856.00
2022-08-20T10:54:46.462Z,100860.50
2022-08-20T10:57:16.446Z,100856.16
2022-08-20T10:59:44.729Z,100857.13
2022-08-20T11:02:11.474Z,100857.50
2022-08-20T11:04:38.186Z,100860.44
2022-08-20T11:07:50.823Z,100861.28
2022-08-20T11:10:13.993Z,100864.00
2022-08-20T11:12:40.577Z,100863.22
2022-08-20T11:15:09.421Z,100870.44
2022-08-20T11:17:39.158Z,100871.34
2022-08-20T11:20:10.523Z,100867.81
2022-08-20T11:22:37.185Z,100872.28
2022-08-20T11:25:05.502Z,100870.44
2022-08-20T11:27:42.020Z,100872.16
2022-08-20T11:30:12.032Z,100879.31
2022-08-20T11:32:38.504Z,100868.53
2022-08-20T11:35:24.501Z,100875.50
2022-08-20T11:37:52.851Z,100866.72
2022-08-20T11:40:19.692Z,100879.97
2022-08-20T11:43:12.653Z,100873.69
2022-08-20T11:45:37.650Z,100869.38
2022-08-20T11:48:04.726Z,100873.94
2022-08-20T11:50:31.202Z,100868.63
2022-08-20T11:52:57.729Z,100878.25
2022-08-20T11:55:29.946Z,100880.97
2022-08-20T11:57:57.190Z,100883.50
2022-08-20T12:00:31.946Z,100882.63
2022-08-20T12:03:00.102Z,100872.09
2022-08-20T12:05:27.380Z,100879.16
2022-08-20T12:07:53.859Z,100887.09
2022-08-20T12:10:20.539Z,100885.28
2022-08-20T12:12:47.003Z,100880.72
2022-08-20T12:15:13.497Z,100873.56
2022-08-20T12:17:39.994Z,100876.91
2022-08-20T12:20:10.415Z,100878.47
2022-08-20T12:22:37.012Z,100877.47
2022-08-20T12:25:04.502Z,100885.19
2022-08-20T12:27:32.312Z,100879.78
2022-08-20T12:30:01.058Z,100869.03
2022-08-20T12:32:29.682Z,100872.59
2022-08-20T12:34:56.850Z,100873.25
2022-08-20T12:37:26.025Z,100883.13
2022-08-20T12:39:55.378Z,100877.59
2022-08-20T12:42:21.875Z,100875.81
2022-08-20T12:44:48.655Z,100878.31
2022-08-20T12:47:28.373Z,100876.53
2022-08-20T12:50:02.909Z,100880.09
2022-08-20T12:52:32.054Z,100875.50
2022-08-20T12:54:58.978Z,100873.84
2022-08-20T12:57:37.374Z,100877.25
2022-08-20T13:00:10.645Z,100875.59
2022-08-20T13:02:38.624Z,100871.00
2022-08-20T13:05:05.904Z,100866.44
2022-08-20T13:07:32.955Z,100866.38
2022-08-20T13:10:00.286Z,100865.50
2022-08-20T13:12:27.323Z,100869.84
2022-08-20T13:14:53.893Z,100871.47
2022-08-20T13:17:20.454Z,100873.22
2022-08-20T13:20:04.265Z,100872.34
2022-08-20T13:22:30.705Z,100873.22
2022-08-20T13:24:57.174Z,100865.44
2022-08-20T13:27:24.635Z,100867.91
2022-08-20T13:29:57.867Z,100858.88
2022-08-20T13:32:25.241Z,100872.81
2022-08-20T13:34:51.670Z,100868.28
2022-08-20T13:37:24.950Z,100867.38
2022-08-20T13:39:52.042Z,100860.13
2022-08-20T13:42:18.631Z,100866.13
2022-08-20T13:44:45.069Z,100856.88
2022-08-20T13:47:16.114Z,100858.34
2022-08-20T13:49:42.553Z,100860.13
2022-08-20T13:52:09.025Z,100857.59
2022-08-20T13:54:35.480Z,100850.47
2022-08-20T13:57:09.273Z,100858.50
2022-08-20T13:59:37.935Z,100858.88
2022-08-20T14:02:07.302Z,100849.06
2022-08-20T14:04:34.799Z,100856.34
2022-08-20T14:07:15.707Z,100846.34
2022-08-20T14:09:44.474Z,100848.03
2022-08-20T14:12:11.645Z,100848.16
2022-08-20T14:14:38.077Z,100851.47
2022-08-20T14:17:20.386Z,100850.69
2022-08-20T14:19:48.030Z,100853.38
2022-08-20T14:22:17.362Z,100842.81
2022-08-20T14:24:44.893Z,100847.16
2022-08-20T14:27:13.392Z,100844.50
2022-08-20T14:29:41.582Z,100842.94
2022-08-20T14:32:08.671Z,100852.47
2022-08-20T14:34:35.667Z,100851.53
2022-08-20T14:37:18.492Z,100856.00
2022-08-20T14:39:47.461Z,100858.72
2022-08-20T14:42:14.104Z,100857.88
2022-08-20T14:44:41.087Z,100865.00
2022-08-20T14:47:17.406Z,100857.13
2022-08-20T14:49:44.971Z,100862.44
2022-08-20T14:52:12.709Z,100869.75
2022-08-20T14:54:39.999Z,100868.91
2022-08-20T14:57:08.825Z,100875.19
2022-08-20T14:59:41.037Z,100877.41
2022-08-20T15:02:09.794Z,100893.94
2022-08-20T15:04:37.011Z,100889.50
2022-08-20T15:07:11.093Z,100885.25
2022-08-20T15:09:40.049Z,100887.81
2022-08-20T15:12:06.534Z,100889.59
2022-08-20T15:14:33.000Z,100887.75
2022-08-20T15:17:00.065Z,100883.28
2022-08-20T15:19:26.511Z,100879.78
2022-08-20T15:21:52.942Z,100879.94
2022-08-20T15:24:19.694Z,100883.63
2022-08-20T15:26:46.355Z,100877.25
2022-08-20T15:29:13.294Z,100887.78
2022-08-20T15:31:49.507Z,100887.81
2022-08-20T15:34:17.771Z,100885.81
2022-08-20T15:36:44.620Z,100890.28
2022-08-20T15:39:11.068Z,100881.50
2022-08-20T15:41:37.492Z,100890.53
2022-08-20T15:44:04.067Z,100886.06
2022-08-20T15:46:33.619Z,100887.88
2022-08-20T15:49:04.072Z,100887.06
2022-08-20T15:51:40.694Z,100883.66
2022-08-20T15:54:16.405Z,100877.50
2022-08-20T15:57:05.806Z,100887.13
2022-08-20T15:59:52.037Z,100879.19
2022-08-20T16:02:48.053Z,100872.19
2022-08-20T16:05:28.400Z,100874.69
2022-08-20T16:08:25.577Z,100873.78
2022-08-20T16:11:19.968Z,100877.22
2022-08-20T16:14:03.254Z,100882.44
2022-08-20T16:16:33.930Z,100879.63
2022-08-20T16:19:00.644Z,100887.47
2022-08-20T16:21:38.376Z,100886.59
2022-08-20T16:24:06.108Z,100890.03
2022-08-20T16:26:51.286Z,100896.13
2022-08-20T16:29:19.843Z,100904.22
2022-08-20T16:31:50.203Z,100898.00
2022-08-20T16:34:34.887Z,100895.09
2022-08-20T16:37:25.162Z,100899.97
2022-08-20T16:40:08.371Z,100901.16
2022-08-20T16:42:37.850Z,100900.81
2022-08-20T16:45:07.476Z,100912.13
2022-08-20T16:47:36.105Z,100907.94
2022-08-20T16:50:12.869Z,100913.19
2022-08-20T16:52:42.617Z,100904.59
2022-08-20T16:55:09.602Z,100909.06
2022-08-20T16:57:36.087Z,100911.38
2022-08-20T17:00:24.938Z,100910.44
2022-08-20T17:02:59.992Z,100912.72
2022-08-20T17:05:31.476Z,100907.72
2022-08-20T17:08:03.664Z,100902.19
2022-08-20T17:10:55.470Z,100909.66
2022-08-20T17:13:28.131Z,100905.84
2022-08-20T17:15:58.508Z,100908.41
2022-08-20T17:18:37.004Z,100914.31
2022-08-20T17:21:07.820Z,100921.59
2022-08-20T17:23:54.789Z,100918.00
2022-08-20T17:26:32.276Z,100913.47
2022-08-20T17:29:00.735Z,100919.78
2022-08-20T17:31:39.244Z,100925.31
2022-08-20T17:34:05.947Z,100922.84
2022-08-20T17:36:34.161Z,100922.06
2022-08-20T17:39:01.308Z,100930.13
2022-08-20T17:41:31.421Z,100932.91
2022-08-20T17:44:09.141Z,100926.41
2022-08-20T17:46:41.795Z,100932.31
2022-08-20T17:49:10.666Z,100930.97
2022-08-20T17:51:47.425Z,100928.38
2022-08-20T17:54:29.363Z,100925.06
2022-08-20T17:57:02.188Z,100928.84
2022-08-20T18:00:01.505Z,100922.00
2022-08-20T18:02:19.463Z,100930.22
2022-08-20T18:04:47.092Z,100933.06
2022-08-20T18:07:35.702Z,100942.06
2022-08-20T18:10:05.114Z,100951.09
2022-08-20T18:12:37.033Z,100947.75
2022-08-20T18:15:20.246Z,100948.00
2022-08-20T18:17:56.171Z,100946.38
2022-08-20T18:21:05.453Z,100943.06
2022-08-20T18:23:37.739Z,100941.41
2022-08-20T18:26:17.699Z,100940.66
2022-08-20T18:28:47.240Z,100945.25
2022-08-20T18:31:33.773Z,100939.13
2022-08-20T18:34:11.335Z,100942.75
2022-08-20T18:36:37.777Z,100953.47
2022-08-20T18:39:11.042Z,100964.16
2022-08-20T18:41:41.450Z,100968.66
2022-08-20T18:44:13.652Z,100962.56
2022-08-20T18:46:54.378Z,100967.09
2022-08-20T18:49:32.763Z,100964.56
2022-08-20T18:52:09.277Z,100968.19
2022-08-20T18:54:36.290Z,100961.19
2022-08-20T18:57:06.235Z,100968.38
2022-08-20T18:59:37.051Z,100971.09
2022-08-20T19:02:14.933Z,100972.97
2022-08-20T19:04:42.075Z,100973.03
2022-08-20T19:07:11.326Z,100969.56
2022-08-20T19:10:12.931Z,100971.44
2022-08-20T19:13:33.470Z,100978.59
2022-08-20T19:16:09.383Z,100975.19
2022-08-20T19:18:51.715Z,100973.53
2022-08-20T19:21:42.311Z,100975.38
2022-08-20T19:24:09.506Z,100977.19
2022-08-20T19:26:42.828Z,100969.34
2022-08-20T19:29:14.108Z,100968.50
2022-08-20T19:31:41.773Z,100961.53
2022-08-20T19:34:21.719Z,100968.63
2022-08-20T19:37:02.303Z,100966.88
2022-08-20T19:39:50.585Z,100966.94
2022-08-20T19:42:20.524Z,100966.97
2022-08-20T19:45:03.281Z,100974.09
2022-08-20T19:47:31.438Z,100973.22
2022-08-20T19:50:22.117Z,100969.81
2022-08-20T19:53:29.916Z,100970.75
2022-08-20T19:56:02.434Z,100976.97
2022-08-20T19:58:31.137Z,100976.16
2022-08-20T20:00:58.183Z,100973.56
2022-08-20T20:03:32.072Z,100977.13
2022-08-20T20:06:16.134Z,100977.22
2022-08-20T20:08:58.818Z,100982.56
2022-08-20T20:11:49.856Z,100985.28
2022-08-20T20:14:17.737Z,100978.28
2022-08-20T20:16:49.747Z,100981.81
2022-08-20T20:19:26.338Z,100979.19
2022-08-20T20:22:17.336Z,100976.59
2022-08-20T20:24:50.781Z,100976.63
2022-08-20T20:27:25.887Z,100974.97
2022-08-20T20:30:06.221Z,100983.78
2022-08-20T20:32:33.951Z,100986.44
2022-08-20T20:35:03.178Z,100993.53
2022-08-20T20:37:49.922Z,100994.47
2022-08-20T20:40:48.432Z,100999.78
2022-08-20T20:43:34.469Z,100999.88
2022-08-20T20:46:12.565Z,100998.09
2022-08-20T20:48:52.070Z,101001.69
2022-08-20T20:51:25.004Z,101002.59
2022-08-20T20:53:55.006Z,100999.97
2022-08-20T20:56:42.387Z,101000.00
2022-08-20T20:59:10.778Z,101002.66
2022-08-20T21:01:48.274Z,100996.53
2022-08-20T21:04:19.968Z,100998.31
2022-08-20T21:06:46.439Z,100997.44
2022-08-20T21:09:12.960Z,100988.66
2022-08-20T21:11:39.405Z,100997.47
2022-08-20T21:14:05.853Z,100995.72
2022-08-20T21:16:32.365Z,100994.88
2022-08-20T21:18:58.816Z,100991.34
2022-08-20T21:21:25.278Z,100993.09
2022-08-20T21:23:51.737Z,100988.69
2022-08-20T21:26:18.671Z,100994.88
2022-08-20T21:28:45.127Z,100991.38
2022-08-20T21:31:11.591Z,100995.78
2022-08-20T21:33:38.060Z,100990.50
2022-08-20T21:36:04.572Z,100990.50
2022-08-20T21:38:31.016Z,100985.25
2022-08-20T21:40:58.198Z,100991.41
2022-08-20T21:43:24.932Z,100987.03
2022-08-20T21:45:51.583Z,100982.63
2022-08-20T21:48:18.714Z,100983.53
2022-08-20T21:50:45.148Z,100986.16
2022-08-20T21:53:13.156Z,100992.31
2022-08-20T21:55:40.297Z,100990.59
2022-08-20T21:58:06.925Z,101002.94
2022-08-20T22:01:00.823Z,101007.31
2022-08-20T22:03:29.644Z,100998.56
2022-08-20T22:05:58.866Z,100999.41
2022-08-20T22:08:28.642Z,101014.41
2022-08-20T22:10:57.009Z,101015.28
2022-08-20T22:13:24.586Z,101014.44
2022-08-20T22:15:51.054Z,101010.94
2022-08-20T22:18:17.706Z,101005.66
2022-08-20T22:20:44.450Z,101002.16
2022-08-20T22:23:11.572Z,101012.66
2022-08-20T22:25:38.041Z,101004.78
2022-08-20T22:28:04.839Z,101012.69
2022-08-20T22:30:31.514Z,101003.03
2022-08-20T22:33:02.010Z,101004.78
2022-08-20T22:35:29.289Z,101005.66
2022-08-20T22:37:55.743Z,101007.44
2022-08-20T22:40:22.250Z,101003.91
2022-08-20T22:42:48.714Z,101006.53
2022-08-20T22:45:15.239Z,101010.06
2022-08-20T22:47:42.203Z,101014.47
2022-08-20T22:50:09.566Z,101011.81
2022-08-20T22:52:37.415Z,101008.31
2022-08-20T22:55:05.959Z,101014.47
2022-08-20T22:57:34.227Z,101011.84
2022-08-20T23:00:01.199Z,101010.97
2022-08-20T23:02:27.703Z,101017.09
2022-08-20T23:04:54.241Z,101010.06
2022-08-20T23:07:20.748Z,101017.09
2022-08-20T23:09:47.186Z,101017.09
2022-08-20T23:12:13.640Z,101014.47
2022-08-20T23:14:40.058Z,101007.44
2022-08-20T23:17:18.985Z,101014.47
2022-08-20T23:19:47.325Z,101006.56
2022-08-20T23:22:14.024Z,101005.69
2022-08-20T23:24:40.594Z,101005.69
2022-08-20T23:27:08.070Z,101000.41
2022-08-20T23:29:34.538Z,101002.19
2022-08-20T23:32:01.005Z,101003.06
2022-08-20T23:34:27.723Z,100996.88
2022-08-20T23:36:55.817Z,101000.44
2022-08-20T23:39:22.732Z,100999.53
2022-08-20T23:41:49.206Z,100992.50
2022-08-20T23:44:26.127Z,100993.38
2022-08-20T23:46:55.074Z,101005.69
2022-08-20T23:49:21.633Z,101010.06
2022-08-20T23:51:48.153Z,101000.41
2022-08-20T23:54:14.597Z,101007.44
2022-08-20T23:56:41.036Z,101003.03
2022-08-20T23:59:07.477Z,100997.78
